Terminal Aerodrome Forecast
Issued by NWS Bismarck, ND

Home | Current Version | Previous Version | Text Only | Print | Product List | Glossary Off
Versions: 1 2 3 4 5 6 7 8 9 10 11 12 13 14 15 16 17 18 19 20 21

000
FTUS43 KBIS 041128
TAFISN
TAF
KISN 041128Z 0412/0512 18006KT 5SM FU SCT070
     FM041600 18006KT P6SM SKC
     FM042200 20008KT P6SM VCTS SCT060CB SCT100
     FM050000 30012KT P6SM VCTS BKN050CB OVC100
     FM050300 36014KT P6SM VCTS SCT025 BKN040CB OVC070
     FM050600 35011KT P6SM SCT025 BKN035 OVC070=

USA.gov is the U.S. government's official web portal to all federal, state and local government web resources and services.